createdAt,value
2022-12-26T00:03:38.551Z,12.00
2022-12-26T00:08:44.936Z,11.07
2022-12-26T00:13:51.022Z,11.06
2022-12-26T00:18:57.223Z,11.01
2022-12-26T00:24:03.307Z,10.93
2022-12-26T00:29:09.684Z,11.49
2022-12-26T00:34:15.762Z,11.85
2022-12-26T00:39:22.027Z,11.64
2022-12-26T00:44:28.126Z,11.39
2022-12-26T00:50:12.162Z,11.43
2022-12-26T00:54:39.894Z,12.14
2022-12-26T00:59:46.231Z,13.27
2022-12-26T01:04:52.290Z,11.57
2022-12-26T01:09:58.438Z,12.11
2022-12-26T01:15:04.603Z,11.59
2022-12-26T01:20:10.760Z,11.15
2022-12-26T01:25:16.822Z,10.96
2022-12-26T01:30:22.979Z,11.46
2022-12-26T01:35:29.085Z,11.55
2022-12-26T01:40:35.468Z,11.22
2022-12-26T01:45:41.577Z,11.65
2022-12-26T01:50:47.758Z,10.72
2022-12-26T01:55:53.825Z,11.29
2022-12-26T02:01:00.071Z,11.42
2022-12-26T02:06:06.076Z,11.13
2022-12-26T02:11:12.350Z,11.09
2022-12-26T02:16:18.501Z,12.11
2022-12-26T02:21:24.733Z,12.38
2022-12-26T02:26:30.802Z,12.47
2022-12-26T02:31:37.115Z,10.86
2022-12-26T02:36:43.174Z,11.98
2022-12-26T02:41:49.398Z,11.92
2022-12-26T02:46:55.485Z,11.94
2022-12-26T02:52:01.748Z,11.37
2022-12-26T02:57:07.818Z,11.86
2022-12-26T03:02:14.056Z,11.98
2022-12-26T03:08:25.942Z,14.42
2022-12-26T03:13:32.086Z,11.57
2022-12-26T03:18:59.002Z,11.33
2022-12-26T03:23:44.043Z,10.56
2022-12-26T03:28:50.137Z,10.43
2022-12-26T03:33:56.441Z,9.71
2022-12-26T03:39:02.517Z,8.98
2022-12-26T03:44:08.854Z,8.91
2022-12-26T03:49:15.065Z,8.58
2022-12-26T03:54:21.226Z,8.51
2022-12-26T03:59:27.336Z,8.36
2022-12-26T04:04:33.503Z,8.37
2022-12-26T04:09:39.557Z,7.99
2022-12-26T04:14:45.949Z,7.93
2022-12-26T04:19:52.027Z,8.46
2022-12-26T04:24:58.148Z,8.67
2022-12-26T04:30:04.254Z,8.44
2022-12-26T04:35:10.467Z,8.47
2022-12-26T04:40:16.525Z,8.77
2022-12-26T04:45:22.719Z,8.75
2022-12-26T04:50:28.833Z,8.48
2022-12-26T04:55:35.151Z,9.09
2022-12-26T05:00:41.226Z,9.15
2022-12-26T05:05:47.564Z,8.76
2022-12-26T05:10:53.648Z,9.06
2022-12-26T05:15:59.813Z,9.17
2022-12-26T05:21:05.951Z,9.38
2022-12-26T05:26:12.174Z,9.20
2022-12-26T05:31:18.397Z,9.72
2022-12-26T05:36:24.429Z,10.38
2022-12-26T05:41:30.535Z,10.08
2022-12-26T05:46:36.797Z,10.49
2022-12-26T05:51:42.876Z,11.55
2022-12-26T05:56:49.606Z,11.47
2022-12-26T06:01:54.881Z,11.68
2022-12-26T06:07:00.924Z,12.21
2022-12-26T06:12:07.000Z,11.58
2022-12-26T06:17:13.141Z,12.74
2022-12-26T06:22:19.213Z,12.98
2022-12-26T06:27:25.371Z,13.04
2022-12-26T06:32:31.447Z,13.28
2022-12-26T06:37:37.632Z,13.14
2022-12-26T06:42:44.057Z,13.58
2022-12-26T06:47:50.206Z,13.94
2022-12-26T06:52:56.295Z,13.21
2022-12-26T06:58:02.574Z,13.59
2022-12-26T07:03:08.620Z,12.94
2022-12-26T07:08:14.758Z,12.82
2022-12-26T07:13:20.825Z,12.69
2022-12-26T07:18:27.002Z,12.51
2022-12-26T07:23:33.083Z,12.53
2022-12-26T07:28:39.239Z,12.08
2022-12-26T07:33:45.293Z,11.71
2022-12-26T07:40:02.321Z,14.38
2022-12-26T07:45:08.409Z,11.87
2022-12-26T07:50:14.620Z,11.62
2022-12-26T07:55:20.684Z,11.56
2022-12-26T08:00:26.846Z,11.52
2022-12-26T08:05:32.901Z,11.08
2022-12-26T08:10:39.149Z,11.05
2022-12-26T08:15:45.201Z,10.52
2022-12-26T08:20:51.400Z,10.58
2022-12-26T08:25:57.460Z,10.37
2022-12-26T08:31:03.678Z,10.14
2022-12-26T08:36:09.812Z,9.91
2022-12-26T08:41:16.050Z,10.16
2022-12-26T08:46:22.133Z,10.23
2022-12-26T08:51:28.446Z,10.75
2022-12-26T08:56:34.530Z,10.77
2022-12-26T09:01:40.783Z,11.19
2022-12-26T09:06:46.776Z,12.08
2022-12-26T09:11:53.041Z,12.01
2022-12-26T09:16:59.236Z,12.04
2022-12-26T09:22:05.315Z,12.20
2022-12-26T09:27:11.428Z,12.11
2022-12-26T09:32:17.615Z,11.37
2022-12-26T09:37:23.695Z,11.66
2022-12-26T09:42:29.891Z,11.39
2022-12-26T09:47:36.264Z,10.94
2022-12-26T09:52:42.387Z,10.91
2022-12-26T09:57:48.475Z,10.06
2022-12-26T10:02:54.746Z,9.76
2022-12-26T10:08:00.801Z,9.05
2022-12-26T10:13:06.964Z,8.93
2022-12-26T10:18:13.065Z,8.63
2022-12-26T10:23:19.293Z,7.73
2022-12-26T10:28:25.405Z,7.45
2022-12-26T10:33:31.573Z,6.83
2022-12-26T10:38:37.689Z,6.33
2022-12-26T10:43:43.866Z,5.95
2022-12-26T10:48:49.960Z,5.65
2022-12-26T10:53:56.131Z,5.39
2022-12-26T10:59:02.360Z,5.31
2022-12-26T11:04:08.538Z,4.88
2022-12-26T11:09:14.614Z,4.69
2022-12-26T11:14:20.779Z,4.41
2022-12-26T11:19:26.893Z,5.08
2022-12-26T11:24:33.139Z,7.43
2022-12-26T11:29:39.218Z,8.14
2022-12-26T11:34:45.381Z,4.35
2022-12-26T11:39:51.421Z,3.84
2022-12-26T11:44:57.638Z,2.48
2022-12-26T11:50:03.691Z,2.15
2022-12-26T11:55:09.872Z,1.84
2022-12-26T12:00:15.943Z,1.61
2022-12-26T12:05:22.237Z,1.67
2022-12-26T12:10:28.312Z,1.40
2022-12-26T12:15:34.778Z,1.69
2022-12-26T12:20:40.864Z,1.26
2022-12-26T12:25:46.670Z,1.18
2022-12-26T12:30:52.737Z,1.09
2022-12-26T12:35:58.890Z,1.42
2022-12-26T12:41:04.955Z,1.28
2022-12-26T12:46:11.294Z,1.53
2022-12-26T12:51:17.370Z,1.38
2022-12-26T12:56:23.524Z,1.47
2022-12-26T13:01:29.740Z,1.46
2022-12-26T13:06:35.845Z,1.40
2022-12-26T13:11:41.980Z,1.31
2022-12-26T13:16:48.209Z,1.55
2022-12-26T13:21:54.221Z,1.36
2022-12-26T13:27:00.383Z,1.37
2022-12-26T13:32:06.515Z,1.49
2022-12-26T13:37:12.602Z,1.52
2022-12-26T13:42:18.677Z,1.77
2022-12-26T13:47:24.845Z,1.65
2022-12-26T13:52:31.038Z,1.69
2022-12-26T13:57:37.312Z,8.01
2022-12-26T14:03:16.024Z,8.33
2022-12-26T14:07:49.273Z,3.37
2022-12-26T14:12:55.344Z,2.17
2022-12-26T14:18:01.509Z,1.85
2022-12-26T14:23:07.562Z,1.64
2022-12-26T14:28:13.728Z,2.11
2022-12-26T14:33:19.783Z,2.53
2022-12-26T14:38:25.914Z,2.11
2022-12-26T14:43:32.287Z,2.26
2022-12-26T14:48:38.488Z,2.11
2022-12-26T14:53:44.539Z,2.01
2022-12-26T14:58:51.531Z,2.16
2022-12-26T15:03:57.652Z,1.93
2022-12-26T15:09:03.887Z,2.07
2022-12-26T15:14:09.963Z,2.16
2022-12-26T15:19:16.099Z,2.34
2022-12-26T15:24:22.219Z,2.29
2022-12-26T15:29:28.499Z,1.92
2022-12-26T15:34:34.656Z,2.72
2022-12-26T15:39:40.937Z,2.85
2022-12-26T15:44:47.042Z,2.99
2022-12-26T15:49:53.238Z,2.30
2022-12-26T15:55:00.425Z,2.07
2022-12-26T16:00:06.673Z,2.34
2022-12-26T16:05:12.893Z,2.12
2022-12-26T16:10:19.109Z,2.45
2022-12-26T16:15:25.219Z,2.37
2022-12-26T16:20:31.453Z,2.27
2022-12-26T16:25:38.144Z,2.81
2022-12-26T16:30:43.400Z,2.64
2022-12-26T16:35:49.502Z,2.59
2022-12-26T16:40:56.457Z,2.53
2022-12-26T16:46:02.579Z,2.52
2022-12-26T16:51:08.736Z,2.34
2022-12-26T16:56:14.850Z,2.51
2022-12-26T17:01:21.041Z,2.21
2022-12-26T17:06:27.083Z,2.56
2022-12-26T17:11:33.326Z,2.35
2022-12-26T17:16:39.393Z,2.40
2022-12-26T17:21:45.620Z,2.58
2022-12-26T17:26:51.747Z,2.48
2022-12-26T17:31:57.872Z,2.15
2022-12-26T17:37:20.076Z,2.44
2022-12-26T17:42:09.715Z,2.23
2022-12-26T17:47:15.785Z,2.25
2022-12-26T17:52:21.991Z,3.01
2022-12-26T17:57:28.141Z,3.37
2022-12-26T18:02:34.347Z,2.20
2022-12-26T18:07:40.351Z,2.63
2022-12-26T18:12:46.511Z,2.49
2022-12-26T18:17:52.627Z,2.09
2022-12-26T18:22:58.792Z,2.12
2022-12-26T18:28:04.847Z,2.60
2022-12-26T18:33:11.070Z,2.29
2022-12-26T18:38:17.227Z,2.09
2022-12-26T18:43:23.411Z,2.38
2022-12-26T18:48:29.493Z,2.25
2022-12-26T18:53:35.743Z,2.15
2022-12-26T18:58:41.918Z,2.15
2022-12-26T19:03:48.324Z,2.41
2022-12-26T19:08:54.816Z,2.51
2022-12-26T19:14:00.977Z,2.83
2022-12-26T19:19:07.052Z,2.79
2022-12-26T19:24:13.288Z,2.83
2022-12-26T19:29:19.459Z,2.81
2022-12-26T19:34:25.756Z,2.39
2022-12-26T19:39:32.169Z,2.36
2022-12-26T19:44:38.524Z,2.45
2022-12-26T19:49:44.675Z,2.16
2022-12-26T19:54:51.728Z,2.59
2022-12-26T19:59:57.820Z,2.47
2022-12-26T20:05:04.712Z,2.46
2022-12-26T20:10:11.200Z,2.36
2022-12-26T20:15:17.962Z,2.47
2022-12-26T20:20:24.435Z,2.46
2022-12-26T20:25:31.061Z,2.33
2022-12-26T20:30:37.888Z,2.17
2022-12-26T20:35:44.648Z,2.05
2022-12-26T20:40:51.058Z,2.29
2022-12-26T20:45:59.768Z,2.66
2022-12-26T20:51:04.433Z,2.50
2022-12-26T20:56:11.122Z,2.40
2022-12-26T21:01:17.484Z,2.46
2022-12-26T21:06:24.285Z,2.15
2022-12-26T21:11:30.782Z,2.35
2022-12-26T21:16:37.630Z,2.03
2022-12-26T21:21:44.511Z,2.11
2022-12-26T21:26:51.083Z,2.33
2022-12-26T21:31:59.362Z,2.63
2022-12-26T21:37:06.333Z,2.03
2022-12-26T21:42:13.084Z,1.93
2022-12-26T21:47:19.620Z,2.40
2022-12-26T21:52:26.046Z,2.29
2022-12-26T21:57:32.719Z,2.05
2022-12-26T22:02:39.453Z,2.41
2022-12-26T22:07:46.179Z,2.11
2022-12-26T22:12:52.669Z,2.14
2022-12-26T22:17:59.652Z,2.13
2022-12-26T22:23:06.102Z,2.34
2022-12-26T22:28:16.586Z,1.98
2022-12-26T22:33:20.864Z,2.34
2022-12-26T22:38:27.680Z,2.03
2022-12-26T22:43:35.607Z,2.26
2022-12-26T22:48:42.583Z,2.10
2022-12-26T22:53:48.916Z,1.87
2022-12-26T22:58:55.430Z,2.23
2022-12-26T23:04:03.528Z,2.00
2022-12-26T23:09:09.664Z,2.18
2022-12-26T23:14:16.917Z,2.17
2022-12-26T23:19:23.454Z,2.33
2022-12-26T23:24:30.138Z,2.09
2022-12-26T23:29:37.227Z,1.91
2022-12-26T23:34:47.992Z,2.03
2022-12-26T23:39:44.122Z,2.23
2022-12-26T23:44:50.322Z,2.62
2022-12-26T23:49:56.744Z,2.32
2022-12-26T23:55:02.812Z,2.07
